sensor_id;sensor_type;location;lat;lon;timestamp;temperature;humidity
2054;DHT22;1032;52.542;13.440;2023-07-09T00:01:39;21.90;63.90
2054;DHT22;1032;52.542;13.440;2023-07-09T00:04:08;21.90;64.10
2054;DHT22;1032;52.542;13.440;2023-07-09T00:06:35;21.90;64.20
2054;DHT22;1032;52.542;13.440;2023-07-09T00:09:03;21.90;64.40
2054;DHT22;1032;52.542;13.440;2023-07-09T00:11:30;21.80;64.40
2054;DHT22;1032;52.542;13.440;2023-07-09T00:13:57;21.80;64.60
2054;DHT22;1032;52.542;13.440;2023-07-09T00:16:24;21.80;64.60
2054;DHT22;1032;52.542;13.440;2023-07-09T00:18:51;21.80;64.80
2054;DHT22;1032;52.542;13.440;2023-07-09T00:21:20;21.80;64.90
2054;DHT22;1032;52.542;13.440;2023-07-09T00:23:46;21.80;65.10
2054;DHT22;1032;52.542;13.440;2023-07-09T00:26:16;21.30;64.80
2054;DHT22;1032;52.542;13.440;2023-07-09T00:28:46;21.70;65.40
2054;DHT22;1032;52.542;13.440;2023-07-09T00:31:14;21.70;65.40
2054;DHT22;1032;52.542;13.440;2023-07-09T00:33:41;21.40;65.30
2054;DHT22;1032;52.542;13.440;2023-07-09T00:36:14;21.60;65.70
2054;DHT22;1032;52.542;13.440;2023-07-09T00:38:41;21.60;65.90
2054;DHT22;1032;52.542;13.440;2023-07-09T00:41:17;21.60;66.00
2054;DHT22;1032;52.542;13.440;2023-07-09T00:43:45;21.60;66.10
2054;DHT22;1032;52.542;13.440;2023-07-09T00:49:28;21.60;66.30
2054;DHT22;1032;52.542;13.440;2023-07-09T00:51:57;21.80;66.50
2054;DHT22;1032;52.542;13.440;2023-07-09T00:54:29;21.50;66.30
2054;DHT22;1032;52.542;13.440;2023-07-09T00:57:05;21.60;66.40
2054;DHT22;1032;52.542;13.440;2023-07-09T00:59:33;21.60;66.40
2054;DHT22;1032;52.542;13.440;2023-07-09T01:02:00;21.50;66.30
2054;DHT22;1032;52.542;13.440;2023-07-09T01:04:27;21.50;66.30
2054;DHT22;1032;52.542;13.440;2023-07-09T01:06:56;21.50;66.40
2054;DHT22;1032;52.542;13.440;2023-07-09T01:09:23;21.60;66.90
2054;DHT22;1032;52.542;13.440;2023-07-09T01:11:50;21.50;66.80
2054;DHT22;1032;52.542;13.440;2023-07-09T01:14:20;21.50;66.80
2054;DHT22;1032;52.542;13.440;2023-07-09T01:16:55;21.40;66.70
2054;DHT22;1032;52.542;13.440;2023-07-09T01:19:24;21.50;66.80
2054;DHT22;1032;52.542;13.440;2023-07-09T01:22:02;21.50;66.80
2054;DHT22;1032;52.542;13.440;2023-07-09T01:25:02;21.40;66.80
2054;DHT22;1032;52.542;13.440;2023-07-09T01:27:32;21.50;66.90
2054;DHT22;1032;52.542;13.440;2023-07-09T01:30:00;21.50;67.10
2054;DHT22;1032;52.542;13.440;2023-07-09T01:32:27;21.50;67.10
2054;DHT22;1032;52.542;13.440;2023-07-09T01:34:57;21.50;67.30
2054;DHT22;1032;52.542;13.440;2023-07-09T01:37:27;21.50;67.20
2054;DHT22;1032;52.542;13.440;2023-07-09T01:39:54;21.50;67.10
2054;DHT22;1032;52.542;13.440;2023-07-09T01:42:23;21.50;67.20
2054;DHT22;1032;52.542;13.440;2023-07-09T01:44:51;21.50;67.50
2054;DHT22;1032;52.542;13.440;2023-07-09T01:47:19;21.40;67.70
2054;DHT22;1032;52.542;13.440;2023-07-09T01:49:46;21.40;68.00
2054;DHT22;1032;52.542;13.440;2023-07-09T01:52:14;21.40;68.20
2054;DHT22;1032;52.542;13.440;2023-07-09T01:54:45;21.40;68.30
2054;DHT22;1032;52.542;13.440;2023-07-09T01:57:17;21.40;68.40
2054;DHT22;1032;52.542;13.440;2023-07-09T01:59:49;21.30;68.60
2054;DHT22;1032;52.542;13.440;2023-07-09T02:02:16;21.30;69.60
2054;DHT22;1032;52.542;13.440;2023-07-09T02:04:49;21.30;68.90
2054;DHT22;1032;52.542;13.440;2023-07-09T02:07:17;21.30;69.00
2054;DHT22;1032;52.542;13.440;2023-07-09T02:09:45;21.10;69.10
2054;DHT22;1032;52.542;13.440;2023-07-09T02:12:13;21.30;69.40
2054;DHT22;1032;52.542;13.440;2023-07-09T02:14:41;21.20;69.10
2054;DHT22;1032;52.542;13.440;2023-07-09T02:17:08;21.20;69.20
2054;DHT22;1032;52.542;13.440;2023-07-09T02:19:36;21.20;69.10
2054;DHT22;1032;52.542;13.440;2023-07-09T02:22:04;21.20;69.30
2054;DHT22;1032;52.542;13.440;2023-07-09T02:24:31;21.20;69.30
2054;DHT22;1032;52.542;13.440;2023-07-09T02:27:01;21.00;68.90
2054;DHT22;1032;52.542;13.440;2023-07-09T02:29:30;21.20;69.10
2054;DHT22;1032;52.542;13.440;2023-07-09T02:31:58;21.20;69.30
2054;DHT22;1032;52.542;13.440;2023-07-09T02:34:26;20.80;68.90
2054;DHT22;1032;52.542;13.440;2023-07-09T02:36:54;21.20;69.50
2054;DHT22;1032;52.542;13.440;2023-07-09T02:39:22;21.20;69.50
2054;DHT22;1032;52.542;13.440;2023-07-09T02:41:50;21.10;69.60
2054;DHT22;1032;52.542;13.440;2023-07-09T02:44:18;20.90;69.70
2054;DHT22;1032;52.542;13.440;2023-07-09T02:46:45;21.10;69.90
2054;DHT22;1032;52.542;13.440;2023-07-09T02:49:13;21.00;70.10
2054;DHT22;1032;52.542;13.440;2023-07-09T02:51:40;21.00;70.40
2054;DHT22;1032;52.542;13.440;2023-07-09T02:54:07;20.90;70.50
2054;DHT22;1032;52.542;13.440;2023-07-09T02:56:34;21.00;71.00
2054;DHT22;1032;52.542;13.440;2023-07-09T02:59:00;20.90;71.00
2054;DHT22;1032;52.542;13.440;2023-07-09T03:01:28;20.90;71.10
2054;DHT22;1032;52.542;13.440;2023-07-09T03:03:55;20.90;71.30
2054;DHT22;1032;52.542;13.440;2023-07-09T03:06:23;20.60;71.20
2054;DHT22;1032;52.542;13.440;2023-07-09T03:08:50;20.80;71.60
2054;DHT22;1032;52.542;13.440;2023-07-09T03:11:18;20.50;71.60
2054;DHT22;1032;52.542;13.440;2023-07-09T03:13:45;20.70;72.00
2054;DHT22;1032;52.542;13.440;2023-07-09T03:16:13;21.00;72.70
2054;DHT22;1032;52.542;13.440;2023-07-09T03:18:41;20.60;72.60
2054;DHT22;1032;52.542;13.440;2023-07-09T03:21:08;20.40;72.70
2054;DHT22;1032;52.542;13.440;2023-07-09T03:23:34;20.50;73.00
2054;DHT22;1032;52.542;13.440;2023-07-09T03:26:01;20.10;72.70
2054;DHT22;1032;52.542;13.440;2023-07-09T03:28:30;20.20;72.80
2054;DHT22;1032;52.542;13.440;2023-07-09T03:30:57;20.50;73.20
2054;DHT22;1032;52.542;13.440;2023-07-09T03:33:24;20.50;73.50
2054;DHT22;1032;52.542;13.440;2023-07-09T03:35:52;20.60;73.60
2054;DHT22;1032;52.542;13.440;2023-07-09T03:38:19;20.40;73.70
2054;DHT22;1032;52.542;13.440;2023-07-09T03:40:49;20.40;73.60
2054;DHT22;1032;52.542;13.440;2023-07-09T03:43:16;20.40;74.20
2054;DHT22;1032;52.542;13.440;2023-07-09T03:45:44;20.40;74.00
2054;DHT22;1032;52.542;13.440;2023-07-09T03:48:11;20.00;73.60
2054;DHT22;1032;52.542;13.440;2023-07-09T03:50:38;20.40;74.10
2054;DHT22;1032;52.542;13.440;2023-07-09T03:53:06;20.20;73.90
2054;DHT22;1032;52.542;13.440;2023-07-09T03:55:33;20.40;74.10
2054;DHT22;1032;52.542;13.440;2023-07-09T03:57:59;20.50;74.10
2054;DHT22;1032;52.542;13.440;2023-07-09T04:00:28;20.50;74.10
2054;DHT22;1032;52.542;13.440;2023-07-09T04:02:55;20.50;74.20
2054;DHT22;1032;52.542;13.440;2023-07-09T04:05:22;20.60;74.30
2054;DHT22;1032;52.542;13.440;2023-07-09T04:07:48;20.30;74.00
2054;DHT22;1032;52.542;13.440;2023-07-09T04:10:17;20.60;74.20
2054;DHT22;1032;52.542;13.440;2023-07-09T04:12:44;20.70;74.00
2054;DHT22;1032;52.542;13.440;2023-07-09T04:15:11;20.70;73.70
2054;DHT22;1032;52.542;13.440;2023-07-09T04:17:39;20.40;73.20
2054;DHT22;1032;52.542;13.440;2023-07-09T04:20:08;20.90;73.80
2054;DHT22;1032;52.542;13.440;2023-07-09T04:22:35;21.00;73.80
2054;DHT22;1032;52.542;13.440;2023-07-09T04:25:03;21.10;73.70
2054;DHT22;1032;52.542;13.440;2023-07-09T04:27:31;21.20;73.50
2054;DHT22;1032;52.542;13.440;2023-07-09T04:29:59;21.00;73.00
2054;DHT22;1032;52.542;13.440;2023-07-09T04:32:26;21.40;73.20
2054;DHT22;1032;52.542;13.440;2023-07-09T04:34:52;21.40;73.00
2054;DHT22;1032;52.542;13.440;2023-07-09T04:37:19;21.10;72.60
2054;DHT22;1032;52.542;13.440;2023-07-09T04:39:46;21.60;72.80
2054;DHT22;1032;52.542;13.440;2023-07-09T04:42:15;21.70;72.80
2054;DHT22;1032;52.542;13.440;2023-07-09T04:44:45;21.50;72.10
2054;DHT22;1032;52.542;13.440;2023-07-09T04:47:11;22.00;72.00
2054;DHT22;1032;52.542;13.440;2023-07-09T04:49:38;22.10;71.60
2054;DHT22;1032;52.542;13.440;2023-07-09T04:52:06;22.20;71.10
2054;DHT22;1032;52.542;13.440;2023-07-09T04:54:33;22.40;70.60
2054;DHT22;1032;52.542;13.440;2023-07-09T04:56:59;22.30;70.00
2054;DHT22;1032;52.542;13.440;2023-07-09T04:59:27;22.60;70.20
2054;DHT22;1032;52.542;13.440;2023-07-09T05:01:55;22.70;69.70
2054;DHT22;1032;52.542;13.440;2023-07-09T05:04:21;22.80;69.60
2054;DHT22;1032;52.542;13.440;2023-07-09T05:06:48;22.80;69.50
2054;DHT22;1032;52.542;13.440;2023-07-09T05:09:15;23.00;70.00
2054;DHT22;1032;52.542;13.440;2023-07-09T05:11:41;23.10;68.80
2054;DHT22;1032;52.542;13.440;2023-07-09T05:14:08;23.20;68.70
2054;DHT22;1032;52.542;13.440;2023-07-09T05:16:34;23.30;68.40
2054;DHT22;1032;52.542;13.440;2023-07-09T05:19:03;23.10;67.60
2054;DHT22;1032;52.542;13.440;2023-07-09T05:21:29;23.50;67.80
2054;DHT22;1032;52.542;13.440;2023-07-09T05:23:56;23.40;67.50
2054;DHT22;1032;52.542;13.440;2023-07-09T05:26:23;23.60;67.50
2054;DHT22;1032;52.542;13.440;2023-07-09T05:28:50;23.60;67.20
2054;DHT22;1032;52.542;13.440;2023-07-09T05:31:16;23.70;67.40
2054;DHT22;1032;52.542;13.440;2023-07-09T05:33:44;23.60;67.30
2054;DHT22;1032;52.542;13.440;2023-07-09T05:36:11;23.80;67.30
2054;DHT22;1032;52.542;13.440;2023-07-09T05:38:41;23.90;67.30
2054;DHT22;1032;52.542;13.440;2023-07-09T05:41:08;24.00;67.10
2054;DHT22;1032;52.542;13.440;2023-07-09T05:43:34;24.10;67.20
2054;DHT22;1032;52.542;13.440;2023-07-09T05:46:01;24.20;67.10
2054;DHT22;1032;52.542;13.440;2023-07-09T05:48:28;24.30;66.90
2054;DHT22;1032;52.542;13.440;2023-07-09T05:50:55;24.40;67.40
2054;DHT22;1032;52.542;13.440;2023-07-09T05:53:23;24.50;66.90
2054;DHT22;1032;52.542;13.440;2023-07-09T05:55:52;24.60;66.50
2054;DHT22;1032;52.542;13.440;2023-07-09T05:58:19;24.80;66.10
2054;DHT22;1032;52.542;13.440;2023-07-09T06:00:48;24.90;65.80
2054;DHT22;1032;52.542;13.440;2023-07-09T06:03:19;25.00;65.40
2054;DHT22;1032;52.542;13.440;2023-07-09T06:05:47;24.90;64.70
2054;DHT22;1032;52.542;13.440;2023-07-09T06:08:14;25.20;65.20
2054;DHT22;1032;52.542;13.440;2023-07-09T06:10:52;25.20;64.10
2054;DHT22;1032;52.542;13.440;2023-07-09T06:13:19;25.40;63.80
2054;DHT22;1032;52.542;13.440;2023-07-09T06:15:46;25.40;63.80
2054;DHT22;1032;52.542;13.440;2023-07-09T06:18:13;25.50;63.50
2054;DHT22;1032;52.542;13.440;2023-07-09T06:20:39;25.70;62.60
2054;DHT22;1032;52.542;13.440;2023-07-09T06:23:06;25.80;61.80
2054;DHT22;1032;52.542;13.440;2023-07-09T06:25:33;25.60;61.00
2054;DHT22;1032;52.542;13.440;2023-07-09T06:28:01;25.80;60.90
2054;DHT22;1032;52.542;13.440;2023-07-09T06:30:28;25.90;60.70
2054;DHT22;1032;52.542;13.440;2023-07-09T06:32:54;26.00;60.00
2054;DHT22;1032;52.542;13.440;2023-07-09T06:35:21;26.00;59.60
2054;DHT22;1032;52.542;13.440;2023-07-09T06:37:47;26.10;59.50
2054;DHT22;1032;52.542;13.440;2023-07-09T06:40:14;26.20;59.70
2054;DHT22;1032;52.542;13.440;2023-07-09T06:42:41;26.30;59.40
2054;DHT22;1032;52.542;13.440;2023-07-09T06:45:21;26.40;58.60
2054;DHT22;1032;52.542;13.440;2023-07-09T06:47:48;26.50;58.60
2054;DHT22;1032;52.542;13.440;2023-07-09T06:50:15;26.50;58.70
2054;DHT22;1032;52.542;13.440;2023-07-09T06:52:42;26.60;58.80
2054;DHT22;1032;52.542;13.440;2023-07-09T06:55:09;26.60;58.60
2054;DHT22;1032;52.542;13.440;2023-07-09T06:57:35;26.70;58.40
2054;DHT22;1032;52.542;13.440;2023-07-09T07:00:03;26.70;57.90
2054;DHT22;1032;52.542;13.440;2023-07-09T07:02:31;26.70;58.00
2054;DHT22;1032;52.542;13.440;2023-07-09T07:04:57;26.80;58.10
2054;DHT22;1032;52.542;13.440;2023-07-09T07:07:24;26.80;57.50
2054;DHT22;1032;52.542;13.440;2023-07-09T07:09:50;26.80;57.50
2054;DHT22;1032;52.542;13.440;2023-07-09T07:12:24;26.80;57.40
2054;DHT22;1032;52.542;13.440;2023-07-09T07:14:51;26.80;57.30
2054;DHT22;1032;52.542;13.440;2023-07-09T07:17:18;26.80;57.60
2054;DHT22;1032;52.542;13.440;2023-07-09T07:19:46;26.80;57.60
2054;DHT22;1032;52.542;13.440;2023-07-09T07:22:13;26.90;57.90
2054;DHT22;1032;52.542;13.440;2023-07-09T07:24:40;26.80;57.50
2054;DHT22;1032;52.542;13.440;2023-07-09T07:27:07;26.90;57.60
2054;DHT22;1032;52.542;13.440;2023-07-09T07:29:34;26.90;57.40
2054;DHT22;1032;52.542;13.440;2023-07-09T07:32:01;26.90;57.20
2054;DHT22;1032;52.542;13.440;2023-07-09T07:34:28;26.90;57.10
2054;DHT22;1032;52.542;13.440;2023-07-09T07:36:56;26.80;56.90
2054;DHT22;1032;52.542;13.440;2023-07-09T07:39:22;27.00;56.90
2054;DHT22;1032;52.542;13.440;2023-07-09T07:41:49;27.00;56.90
2054;DHT22;1032;52.542;13.440;2023-07-09T07:44:16;26.80;56.90
2054;DHT22;1032;52.542;13.440;2023-07-09T07:46:43;27.10;57.00
2054;DHT22;1032;52.542;13.440;2023-07-09T07:49:10;27.10;56.90
2054;DHT22;1032;52.542;13.440;2023-07-09T07:51:37;27.20;57.00
2054;DHT22;1032;52.542;13.440;2023-07-09T07:54:05;27.20;56.90
2054;DHT22;1032;52.542;13.440;2023-07-09T07:56:34;27.20;57.50
2054;DHT22;1032;52.542;13.440;2023-07-09T07:59:00;27.20;57.80
2054;DHT22;1032;52.542;13.440;2023-07-09T08:01:27;27.20;57.70
2054;DHT22;1032;52.542;13.440;2023-07-09T08:03:54;27.20;57.70
2054;DHT22;1032;52.542;13.440;2023-07-09T08:06:21;27.30;58.20
2054;DHT22;1032;52.542;13.440;2023-07-09T08:08:48;27.30;58.40
2054;DHT22;1032;52.542;13.440;2023-07-09T08:11:16;27.30;58.20
2054;DHT22;1032;52.542;13.440;2023-07-09T08:13:43;27.30;58.20
2054;DHT22;1032;52.542;13.440;2023-07-09T08:16:09;27.40;58.10
2054;DHT22;1032;52.542;13.440;2023-07-09T08:18:37;27.30;58.30
2054;DHT22;1032;52.542;13.440;2023-07-09T08:21:04;27.30;58.20
2054;DHT22;1032;52.542;13.440;2023-07-09T08:23:31;27.40;57.90
2054;DHT22;1032;52.542;13.440;2023-07-09T08:26:00;27.50;58.10
2054;DHT22;1032;52.542;13.440;2023-07-09T08:28:30;27.50;57.80
2054;DHT22;1032;52.542;13.440;2023-07-09T08:30:57;27.30;57.50
2054;DHT22;1032;52.542;13.440;2023-07-09T08:33:24;27.60;57.90
2054;DHT22;1032;52.542;13.440;2023-07-09T08:35:52;27.60;57.50
2054;DHT22;1032;52.542;13.440;2023-07-09T08:38:19;27.60;57.10
2054;DHT22;1032;52.542;13.440;2023-07-09T08:40:53;27.70;57.40
2054;DHT22;1032;52.542;13.440;2023-07-09T08:43:32;27.70;57.50
2054;DHT22;1032;52.542;13.440;2023-07-09T08:46:03;27.70;57.20
2054;DHT22;1032;52.542;13.440;2023-07-09T08:48:35;27.70;56.80
2054;DHT22;1032;52.542;13.440;2023-07-09T08:51:07;27.70;56.90
2054;DHT22;1032;52.542;13.440;2023-07-09T08:53:47;27.60;56.40
2054;DHT22;1032;52.542;13.440;2023-07-09T08:56:16;27.80;56.50
2054;DHT22;1032;52.542;13.440;2023-07-09T08:58:46;27.90;56.40
2054;DHT22;1032;52.542;13.440;2023-07-09T09:01:19;27.90;56.00
2054;DHT22;1032;52.542;13.440;2023-07-09T09:03:48;27.90;55.80
2054;DHT22;1032;52.542;13.440;2023-07-09T09:06:21;27.80;55.70
2054;DHT22;1032;52.542;13.440;2023-07-09T09:08:58;27.90;56.00
2054;DHT22;1032;52.542;13.440;2023-07-09T09:11:34;28.00;56.00
2054;DHT22;1032;52.542;13.440;2023-07-09T09:14:18;28.00;55.80
2054;DHT22;1032;52.542;13.440;2023-07-09T09:16:46;28.00;55.50
2054;DHT22;1032;52.542;13.440;2023-07-09T09:19:20;28.00;54.90
2054;DHT22;1032;52.542;13.440;2023-07-09T09:21:54;28.00;54.10
2054;DHT22;1032;52.542;13.440;2023-07-09T09:24:27;28.00;53.50
2054;DHT22;1032;52.542;13.440;2023-07-09T09:26:58;28.00;53.90
2054;DHT22;1032;52.542;13.440;2023-07-09T09:29:26;28.00;53.90
2054;DHT22;1032;52.542;13.440;2023-07-09T09:31:55;28.10;53.90
2054;DHT22;1032;52.542;13.440;2023-07-09T09:34:24;28.10;53.50
2054;DHT22;1032;52.542;13.440;2023-07-09T09:36:52;28.10;52.60
2054;DHT22;1032;52.542;13.440;2023-07-09T09:39:19;28.10;52.20
2054;DHT22;1032;52.542;13.440;2023-07-09T09:41:46;28.00;52.00
2054;DHT22;1032;52.542;13.440;2023-07-09T09:44:18;28.20;51.60
2054;DHT22;1032;52.542;13.440;2023-07-09T09:46:47;28.20;51.70
2054;DHT22;1032;52.542;13.440;2023-07-09T09:49:14;28.20;51.30
2054;DHT22;1032;52.542;13.440;2023-07-09T09:51:43;28.30;51.30
2054;DHT22;1032;52.542;13.440;2023-07-09T09:54:16;28.30;51.40
2054;DHT22;1032;52.542;13.440;2023-07-09T09:56:42;28.00;50.60
2054;DHT22;1032;52.542;13.440;2023-07-09T09:59:17;28.10;50.60
2054;DHT22;1032;52.542;13.440;2023-07-09T10:01:44;28.40;50.10
2054;DHT22;1032;52.542;13.440;2023-07-09T10:04:17;28.40;50.30
2054;DHT22;1032;52.542;13.440;2023-07-09T10:06:47;28.40;50.40
2054;DHT22;1032;52.542;13.440;2023-07-09T10:09:37;28.40;50.30
2054;DHT22;1032;52.542;13.440;2023-07-09T10:12:13;28.50;50.10
2054;DHT22;1032;52.542;13.440;2023-07-09T10:14:46;28.50;49.90
2054;DHT22;1032;52.542;13.440;2023-07-09T10:17:22;28.60;50.30
2054;DHT22;1032;52.542;13.440;2023-07-09T10:19:56;28.60;50.40
2054;DHT22;1032;52.542;13.440;2023-07-09T10:22:38;28.60;50.50
2054;DHT22;1032;52.542;13.440;2023-07-09T10:25:13;28.60;51.10
2054;DHT22;1032;52.542;13.440;2023-07-09T10:27:54;28.70;51.00
2054;DHT22;1032;52.542;13.440;2023-07-09T10:30:36;28.70;50.90
2054;DHT22;1032;52.542;13.440;2023-07-09T10:33:09;28.50;50.60
2054;DHT22;1032;52.542;13.440;2023-07-09T10:35:43;28.70;50.30
2054;DHT22;1032;52.542;13.440;2023-07-09T10:38:23;28.70;50.00
2054;DHT22;1032;52.542;13.440;2023-07-09T10:40:54;28.70;49.90
2054;DHT22;1032;52.542;13.440;2023-07-09T10:43:38;28.70;50.60
2054;DHT22;1032;52.542;13.440;2023-07-09T10:46:14;28.70;51.30
2054;DHT22;1032;52.542;13.440;2023-07-09T10:48:44;28.70;51.10
2054;DHT22;1032;52.542;13.440;2023-07-09T10:51:19;28.80;51.30
2054;DHT22;1032;52.542;13.440;2023-07-09T10:53:50;28.80;51.50
2054;DHT22;1032;52.542;13.440;2023-07-09T10:56:21;28.90;51.90
2054;DHT22;1032;52.542;13.440;2023-07-09T10:58:55;28.90;52.00
2054;DHT22;1032;52.542;13.440;2023-07-09T11:01:31;28.90;51.80
2054;DHT22;1032;52.542;13.440;2023-07-09T11:04:01;28.80;51.80
2054;DHT22;1032;52.542;13.440;2023-07-09T11:06:34;28.90;51.90
2054;DHT22;1032;52.542;13.440;2023-07-09T11:09:02;28.90;51.70
2054;DHT22;1032;52.542;13.440;2023-07-09T11:11:37;28.90;51.70
2054;DHT22;1032;52.542;13.440;2023-07-09T11:14:22;29.00;51.40
2054;DHT22;1032;52.542;13.440;2023-07-09T11:16:53;29.00;51.10
2054;DHT22;1032;52.542;13.440;2023-07-09T11:19:21;29.00;51.20
2054;DHT22;1032;52.542;13.440;2023-07-09T11:22:04;29.00;50.90
2054;DHT22;1032;52.542;13.440;2023-07-09T11:24:35;29.00;50.40
2054;DHT22;1032;52.542;13.440;2023-07-09T11:27:02;29.00;50.90
2054;DHT22;1032;52.542;13.440;2023-07-09T11:29:29;29.10;51.00
2054;DHT22;1032;52.542;13.440;2023-07-09T11:32:07;29.00;50.60
2054;DHT22;1032;52.542;13.440;2023-07-09T11:34:44;29.20;50.90
2054;DHT22;1032;52.542;13.440;2023-07-09T11:37:13;29.20;51.70
2054;DHT22;1032;52.542;13.440;2023-07-09T11:39:45;29.00;51.10
2054;DHT22;1032;52.542;13.440;2023-07-09T11:42:25;29.30;51.00
2054;DHT22;1032;52.542;13.440;2023-07-09T11:44:56;29.30;50.10
2054;DHT22;1032;52.542;13.440;2023-07-09T11:47:27;29.30;50.10
2054;DHT22;1032;52.542;13.440;2023-07-09T11:49:57;29.30;50.10
2054;DHT22;1032;52.542;13.440;2023-07-09T11:52:30;29.40;50.50
2054;DHT22;1032;52.542;13.440;2023-07-09T11:55:01;29.40;50.80
2054;DHT22;1032;52.542;13.440;2023-07-09T11:57:29;29.40;50.20
2054;DHT22;1032;52.542;13.440;2023-07-09T11:59:59;29.40;50.10
2054;DHT22;1032;52.542;13.440;2023-07-09T12:02:32;29.50;50.10
2054;DHT22;1032;52.542;13.440;2023-07-09T12:04:59;29.50;49.90
2054;DHT22;1032;52.542;13.440;2023-07-09T12:07:30;29.00;49.50
2054;DHT22;1032;52.542;13.440;2023-07-09T12:09:56;29.50;49.60
2054;DHT22;1032;52.542;13.440;2023-07-09T12:12:24;29.50;49.50
2054;DHT22;1032;52.542;13.440;2023-07-09T12:14:52;29.50;49.50
2054;DHT22;1032;52.542;13.440;2023-07-09T12:17:18;29.50;49.50
2054;DHT22;1032;52.542;13.440;2023-07-09T12:19:45;29.50;49.40
2054;DHT22;1032;52.542;13.440;2023-07-09T12:22:17;29.60;49.00
2054;DHT22;1032;52.542;13.440;2023-07-09T12:24:48;29.60;48.50
2054;DHT22;1032;52.542;13.440;2023-07-09T12:27:19;29.60;48.40
2054;DHT22;1032;52.542;13.440;2023-07-09T12:29:46;29.60;48.30
2054;DHT22;1032;52.542;13.440;2023-07-09T12:32:14;29.70;48.40
2054;DHT22;1032;52.542;13.440;2023-07-09T12:34:41;29.70;48.70
2054;DHT22;1032;52.542;13.440;2023-07-09T12:37:11;29.70;48.80
2054;DHT22;1032;52.542;13.440;2023-07-09T12:39:39;29.70;49.00
2054;DHT22;1032;52.542;13.440;2023-07-09T12:42:15;29.70;49.10
2054;DHT22;1032;52.542;13.440;2023-07-09T12:44:43;29.80;48.90
2054;DHT22;1032;52.542;13.440;2023-07-09T12:47:13;29.80;48.70
2054;DHT22;1032;52.542;13.440;2023-07-09T12:49:42;29.80;48.60
2054;DHT22;1032;52.542;13.440;2023-07-09T12:52:14;29.80;48.20
2054;DHT22;1032;52.542;13.440;2023-07-09T12:54:51;29.90;48.10
2054;DHT22;1032;52.542;13.440;2023-07-09T12:57:20;29.90;47.70
2054;DHT22;1032;52.542;13.440;2023-07-09T12:59:47;29.90;47.50
2054;DHT22;1032;52.542;13.440;2023-07-09T13:02:16;29.90;47.40
2054;DHT22;1032;52.542;13.440;2023-07-09T13:04:43;29.90;47.20
2054;DHT22;1032;52.542;13.440;2023-07-09T13:07:26;29.90;46.90
2054;DHT22;1032;52.542;13.440;2023-07-09T13:09:55;29.90;46.90
2054;DHT22;1032;52.542;13.440;2023-07-09T13:12:30;29.90;47.20
2054;DHT22;1032;52.542;13.440;2023-07-09T13:14:57;30.00;47.40
2054;DHT22;1032;52.542;13.440;2023-07-09T13:17:28;30.00;47.50
2054;DHT22;1032;52.542;13.440;2023-07-09T13:19:55;30.00;47.30
2054;DHT22;1032;52.542;13.440;2023-07-09T13:22:22;30.00;47.20
2054;DHT22;1032;52.542;13.440;2023-07-09T13:24:49;30.00;47.20
2054;DHT22;1032;52.542;13.440;2023-07-09T13:27:16;30.00;47.10
2054;DHT22;1032;52.542;13.440;2023-07-09T13:29:44;30.00;47.00
2054;DHT22;1032;52.542;13.440;2023-07-09T13:32:13;30.00;47.70
2054;DHT22;1032;52.542;13.440;2023-07-09T13:34:41;30.10;47.10
2054;DHT22;1032;52.542;13.440;2023-07-09T13:37:11;30.00;47.40
2054;DHT22;1032;52.542;13.440;2023-07-09T13:39:39;30.10;46.80
2054;DHT22;1032;52.542;13.440;2023-07-09T13:42:10;30.10;46.80
2054;DHT22;1032;52.542;13.440;2023-07-09T13:44:38;30.20;46.90
2054;DHT22;1032;52.542;13.440;2023-07-09T13:47:11;30.10;47.00
2054;DHT22;1032;52.542;13.440;2023-07-09T13:49:37;30.20;46.90
2054;DHT22;1032;52.542;13.440;2023-07-09T13:52:05;30.20;47.00
2054;DHT22;1032;52.542;13.440;2023-07-09T13:54:33;30.20;46.80
2054;DHT22;1032;52.542;13.440;2023-07-09T13:57:03;30.20;47.10
2054;DHT22;1032;52.542;13.440;2023-07-09T13:59:31;30.20;47.00
2054;DHT22;1032;52.542;13.440;2023-07-09T14:01:59;30.30;46.80
2054;DHT22;1032;52.542;13.440;2023-07-09T14:04:27;30.30;46.30
2054;DHT22;1032;52.542;13.440;2023-07-09T14:06:54;30.30;46.20
2054;DHT22;1032;52.542;13.440;2023-07-09T14:09:21;30.30;46.20
2054;DHT22;1032;52.542;13.440;2023-07-09T14:11:51;30.30;46.10
2054;DHT22;1032;52.542;13.440;2023-07-09T14:14:20;30.40;46.10
2054;DHT22;1032;52.542;13.440;2023-07-09T14:16:48;30.40;45.90
2054;DHT22;1032;52.542;13.440;2023-07-09T14:19:17;30.40;46.00
2054;DHT22;1032;52.542;13.440;2023-07-09T14:21:46;30.50;46.20
2054;DHT22;1032;52.542;13.440;2023-07-09T14:24:19;30.50;46.20
2054;DHT22;1032;52.542;13.440;2023-07-09T14:26:47;30.50;46.20
2054;DHT22;1032;52.542;13.440;2023-07-09T14:29:13;30.50;46.20
2054;DHT22;1032;52.542;13.440;2023-07-09T14:31:41;30.50;46.20
2054;DHT22;1032;52.542;13.440;2023-07-09T14:34:18;30.50;45.80
2054;DHT22;1032;52.542;13.440;2023-07-09T14:36:46;30.50;45.50
2054;DHT22;1032;52.542;13.440;2023-07-09T14:39:13;30.50;45.70
2054;DHT22;1032;52.542;13.440;2023-07-09T14:41:40;30.50;45.60
2054;DHT22;1032;52.542;13.440;2023-07-09T14:44:19;30.60;46.40
2054;DHT22;1032;52.542;13.440;2023-07-09T14:46:47;30.60;45.60
2054;DHT22;1032;52.542;13.440;2023-07-09T14:49:14;30.60;45.60
2054;DHT22;1032;52.542;13.440;2023-07-09T14:51:41;30.60;45.30
2054;DHT22;1032;52.542;13.440;2023-07-09T14:54:18;30.70;45.30
2054;DHT22;1032;52.542;13.440;2023-07-09T14:56:46;30.70;45.50
2054;DHT22;1032;52.542;13.440;2023-07-09T14:59:13;30.70;45.10
2054;DHT22;1032;52.542;13.440;2023-07-09T15:01:40;30.70;45.10
2054;DHT22;1032;52.542;13.440;2023-07-09T15:04:28;30.70;45.20
2054;DHT22;1032;52.542;13.440;2023-07-09T15:06:56;30.80;45.00
2054;DHT22;1032;52.542;13.440;2023-07-09T15:09:25;30.80;45.20
2054;DHT22;1032;52.542;13.440;2023-07-09T15:11:54;30.90;45.10
2054;DHT22;1032;52.542;13.440;2023-07-09T15:14:21;30.80;44.90
2054;DHT22;1032;52.542;13.440;2023-07-09T15:16:48;30.80;45.00
2054;DHT22;1032;52.542;13.440;2023-07-09T15:19:16;30.90;44.90
2054;DHT22;1032;52.542;13.440;2023-07-09T15:21:44;30.90;44.70
2054;DHT22;1032;52.542;13.440;2023-07-09T15:24:15;30.90;44.60
2054;DHT22;1032;52.542;13.440;2023-07-09T15:26:45;30.90;44.60
2054;DHT22;1032;52.542;13.440;2023-07-09T15:29:14;30.80;44.40
2054;DHT22;1032;52.542;13.440;2023-07-09T15:31:41;30.80;44.70
2054;DHT22;1032;52.542;13.440;2023-07-09T15:34:08;30.80;44.90
2054;DHT22;1032;52.542;13.440;2023-07-09T15:36:34;30.80;44.60
2054;DHT22;1032;52.542;13.440;2023-07-09T15:39:01;30.80;44.50
2054;DHT22;1032;52.542;13.440;2023-07-09T15:41:28;30.80;44.50
2054;DHT22;1032;52.542;13.440;2023-07-09T15:43:55;30.90;44.50
2054;DHT22;1032;52.542;13.440;2023-07-09T15:46:22;30.90;44.40
2054;DHT22;1032;52.542;13.440;2023-07-09T15:48:50;30.90;44.40
2054;DHT22;1032;52.542;13.440;2023-07-09T15:51:17;30.90;44.30
2054;DHT22;1032;52.542;13.440;2023-07-09T15:53:44;30.90;44.40
2054;DHT22;1032;52.542;13.440;2023-07-09T15:56:16;30.90;44.50
2054;DHT22;1032;52.542;13.440;2023-07-09T15:58:45;30.90;44.40
2054;DHT22;1032;52.542;13.440;2023-07-09T16:01:15;30.90;44.50